San Francisco, California
Traffic Map
Current Weather Conditions
San Francisco, California
Few Clouds
Few Clouds
16°
Feels Like: 16°
Wind Chill: 16° Ceiling: Unl
Heat Index: 16° Visibility: 10mi
Dew Point: 12° Wind: 7mph
Humidity: 80% Direction: 180° (S)
Pressure: 29.9in Gusts: 0mph
Raw Report DataKSFO 260756Z 18006KT 10SM FEW009 16/12 A2990 RMK AO2 SLP124 T01560122 402110133
Traffic Incident Summary
Active as of:
Severity:
Category:
InformationThere was an issue retrieving the traffic information for this location. Please try a different location or try again shortly.
Advertisements
Track Severe Weather on mobile